Time;durP1;ratioP1;P1;durP2;ratioP2;P2;SDS_P1;SDS_P2;PMS_P1;PMS_P2;Temp;Humidity;BMP_temperature;BMP_pressure;BME280_temperature;BME280_humidity;BME280_pressure;Samples;Min_cycle;Max_cycle;Signal;HPM_P1;HPM_P2
2022/06/01 00:02:16;;;;;;;2.95;2.75;;;;;;;12.41;78.30;101471.03;5060286;28;20236;-78
2022/06/01 00:04:41;;;;;;;3.00;2.78;;;;;;;12.40;78.45;101469.31;5060554;28;20352;-79
2022/06/01 00:07:07;;;;;;;2.95;2.75;;;;;;;12.39;78.26;101462.38;5078365;28;20066;-79
2022/06/01 00:09:32;;;;;;;3.13;2.83;;;;;;;12.38;78.25;101458.00;5078947;28;20336;-79
2022/06/01 00:11:58;;;;;;;3.35;2.72;;;;;;;12.38;78.56;101460.63;5060807;28;20047;-78
2022/06/01 00:14:23;;;;;;;3.25;2.95;;;;;;;12.37;78.29;101465.03;5064922;28;20068;-79
2022/06/01 00:16:52;;;;;;;2.90;2.70;;;;;;;12.36;78.71;101447.56;5014473;28;20080;-79
2022/06/01 00:19:17;;;;;;;3.15;2.85;;;;;;;12.36;78.41;101446.72;5038358;28;20061;-78
2022/06/01 00:24:27;;;;;;;4.32;3.20;;;;;;;12.35;78.60;101423.97;5057525;28;20368;-79
2022/06/01 00:26:52;;;;;;;3.78;3.47;;;;;;;12.33;79.10;101416.16;5058199;28;20040;-78
2022/06/01 00:29:18;;;;;;;3.60;3.30;;;;;;;12.33;79.20;101428.44;5040054;28;20379;-79
2022/06/01 00:31:43;;;;;;;3.88;3.58;;;;;;;12.32;79.11;101432.00;5039124;28;20247;-78
2022/06/01 00:34:09;;;;;;;3.88;3.63;;;;;;;12.32;78.98;101440.72;5057828;28;20040;-79
2022/06/01 00:36:34;;;;;;;4.13;3.72;;;;;;;12.29;78.98;101440.81;5039793;28;20041;-79
2022/06/01 00:38:59;;;;;;;4.32;4.03;;;;;;;12.29;78.83;101449.56;5058317;28;20043;-79
2022/06/01 00:41:25;;;;;;;4.10;3.72;;;;;;;12.28;78.93;101447.88;5039754;28;20059;-79
2022/06/01 00:43:50;;;;;;;4.70;4.20;;;;;;;12.27;78.86;101453.16;5058016;28;20266;-79
2022/06/01 00:46:16;;;;;;;3.42;3.13;;;;;;;12.26;78.86;101447.06;5039431;28;20041;-79
2022/06/01 00:48:48;;;;;;;3.70;3.50;;;;;;;12.24;78.92;101448.91;5057722;28;20096;-79
2022/06/01 00:51:17;;;;;;;4.15;3.40;;;;;;;12.24;79.14;101450.66;5057791;28;20217;-78
2022/06/01 00:53:44;;;;;;;3.75;3.30;;;;;;;12.22;78.81;101455.09;5057823;28;20028;-79
2022/06/01 00:56:20;;;;;;;3.65;3.40;;;;;;;12.22;79.15;101458.56;5039527;28;20112;-78
2022/06/01 00:58:49;;;;;;;3.50;3.20;;;;;;;12.20;78.96;101451.69;5039962;28;20025;-79
2022/06/01 01:01:17;;;;;;;;;;;;;;;12.19;79.04;101448.22;5057765;28;20044;-78
2022/06/01 01:03:45;;;;;;;3.27;2.97;;;;;;;12.19;79.23;101460.50;5058027;28;19912;-79
2022/06/01 01:06:23;;;;;;;3.60;3.40;;;;;;;12.18;78.84;101456.16;5057120;28;20279;-78
2022/06/01 01:08:48;;;;;;;3.40;3.20;;;;;;;12.16;79.01;101453.56;5057101;28;20051;-79
2022/06/01 01:11:15;;;;;;;3.75;3.42;;;;;;;12.18;79.30;101448.25;5056877;28;20112;-78
2022/06/01 01:13:45;;;;;;;4.25;3.85;;;;;;;12.16;79.38;101437.81;5046816;28;20040;-78
2022/06/01 01:16:12;;;;;;;3.80;3.50;;;;;;;12.16;79.38;101450.09;5074291;28;20033;-79
2022/06/01 01:18:41;;;;;;;3.30;3.10;;;;;;;12.15;79.83;101454.50;5057262;28;20052;-78
2022/06/01 01:21:26;;;;;;;;;;;;;;;12.14;79.91;101447.53;5051020;28;20029;-79
2022/06/01 01:24:16;;;;;;;3.40;3.10;;;;;;;12.14;79.52;101452.78;5077902;28;19908;-79
2022/06/01 01:26:49;;;;;;;3.50;3.30;;;;;;;12.12;79.81;101451.97;5071560;28;20024;-79
2022/06/01 01:29:16;;;;;;;3.97;3.05;;;;;;;12.10;79.51;101449.41;5056765;28;20036;-79
2022/06/01 01:31:43;;;;;;;3.70;3.40;;;;;;;12.09;79.75;101450.31;5043709;28;20083;-79
2022/06/01 01:34:09;;;;;;;3.55;3.35;;;;;;;12.09;79.72;101452.94;5076149;28;20040;-79
2022/06/01 01:36:48;;;;;;;4.13;3.10;;;;;;;12.09;79.46;101442.44;5074358;28;20044;-79
2022/06/01 01:39:15;;;;;;;3.25;3.05;;;;;;;12.07;79.69;101435.53;5056936;28;20041;-79
2022/06/01 01:41:49;;;;;;;3.60;3.40;;;;;;;12.08;79.53;101419.72;5056826;28;20037;-79
2022/06/01 01:44:32;;;;;;;3.20;3.00;;;;;;;12.06;79.68;101411.06;5061020;28;20249;-78
2022/06/01 01:46:58;;;;;;;2.80;2.60;;;;;;;12.05;79.61;101411.97;5065522;28;20046;-79
2022/06/01 01:49:30;;;;;;;3.38;3.17;;;;;;;12.04;79.58;101414.63;5063245;28;20225;-79
2022/06/01 01:52:00;;;;;;;3.15;2.88;;;;;;;12.04;79.81;101419.88;5077256;28;20024;-79
2022/06/01 01:54:50;;;;;;;4.18;3.30;;;;;;;12.01;79.45;101409.53;5060969;28;20272;-79
2022/06/01 01:57:46;;;;;;;3.28;3.08;;;;;;;12.01;79.64;101422.66;5065841;28;20320;-78
2022/06/01 02:00:20;;;;;;;3.08;2.88;;;;;;;12.00;79.43;101423.56;5080807;28;20429;-78
2022/06/01 02:03:20;;;;;;;3.22;2.92;;;;;;;11.98;79.71;101436.72;5071299;28;20041;-78
2022/06/01 02:06:04;;;;;;;3.40;3.10;;;;;;;11.97;79.54;101435.03;5061157;28;20096;-79
2022/06/01 02:08:46;;;;;;;3.38;3.10;;;;;;;11.96;80.02;101429.84;5075779;28;20028;-79
2022/06/01 02:14:37;;;;;;;4.25;3.55;;;;;;;11.88;80.68;101420.44;5053566;28;20094;-76
2022/06/01 02:17:04;;;;;;;3.55;3.35;;;;;;;11.88;80.99;101416.97;5044020;28;20225;-76
2022/06/01 02:19:53;;;;;;;3.35;3.05;;;;;;;11.88;80.97;101427.47;5062582;28;20025;-76
2022/06/01 02:22:19;;;;;;;;;;;;;;;11.83;81.49;101453.03;5044798;28;20048;-76
2022/06/01 02:24:45;;;;;;;4.00;3.60;;;;;;;11.81;81.49;101450.44;5080541;28;20299;-76
2022/06/01 02:27:12;;;;;;;3.83;3.58;;;;;;;11.79;81.69;101448.78;5080197;28;20036;-76
2022/06/01 02:29:54;;;;;;;4.13;3.67;;;;;;;11.77;81.40;101456.72;5063021;28;20025;-76
2022/06/01 02:32:21;;;;;;;4.25;3.80;;;;;;;11.74;81.49;101451.56;5079981;28;20040;-76
2022/06/01 02:34:49;;;;;;;4.40;3.88;;;;;;;11.72;81.51;101456.88;5062094;28;20036;-76
2022/06/01 02:37:17;;;;;;;4.28;3.97;;;;;;;11.70;81.42;101448.22;5061915;28;20319;-76
2022/06/01 02:39:48;;;;;;;9.77;4.35;;;;;;;11.69;81.25;101438.59;5063012;28;20028;-76
2022/06/01 02:42:25;;;;;;;3.90;3.60;;;;;;;11.70;81.19;101439.47;5062267;28;20039;-80
2022/06/01 02:45:00;;;;;;;2.80;2.60;;;;;;;11.71;81.10;101439.44;5080438;28;20353;-80
2022/06/01 02:47:28;;;;;;;3.05;2.85;;;;;;;11.71;80.85;101434.19;5080046;28;20225;-80
2022/06/01 02:49:53;;;;;;;3.00;2.80;;;;;;;11.72;80.90;101432.41;5080483;28;20032;-80
2022/06/01 02:52:20;;;;;;;2.45;2.25;;;;;;;11.72;80.47;101441.13;5079682;28;20059;-80
2022/06/01 02:54:45;;;;;;;2.33;2.13;;;;;;;11.72;80.37;101429.78;5060872;28;20103;-80
2022/06/01 02:57:11;;;;;;;2.13;2.03;;;;;;;11.71;80.32;101428.06;5080261;28;20051;-80
2022/06/01 02:59:36;;;;;;;1.83;1.70;;;;;;;11.70;80.10;101429.84;5048589;28;20111;-80
2022/06/01 03:02:03;;;;;;;2.55;1.70;;;;;;;11.69;80.17;101425.50;5025790;28;20039;-80
2022/06/01 03:04:28;;;;;;;2.63;1.80;;;;;;;11.67;80.04;101421.22;5075649;28;20029;-80
2022/06/01 03:06:54;;;;;;;2.30;2.10;;;;;;;11.65;79.94;101425.66;5061826;28;20036;-80
2022/06/01 03:09:19;;;;;;;2.20;2.10;;;;;;;11.64;79.89;101423.94;5079221;28;20292;-80
2022/06/01 03:11:45;;;;;;;2.95;2.30;;;;;;;11.63;79.69;101427.50;5080040;28;20067;-80
2022/06/01 03:14:10;;;;;;;2.63;2.28;;;;;;;11.60;79.52;101427.59;5061279;28;20256;-80
2022/06/01 03:16:37;;;;;;;2.50;2.30;;;;;;;11.59;79.25;101428.50;5045441;28;20314;-80
2022/06/01 03:19:03;;;;;;;4.07;2.90;;;;;;;11.56;79.39;101434.72;5079081;28;20067;-80
2022/06/01 03:21:29;;;;;;;2.85;2.65;;;;;;;11.53;79.14;101433.06;5045358;28;20028;-80
2022/06/01 03:23:55;;;;;;;3.15;2.83;;;;;;;11.52;78.91;101433.13;5046671;28;20386;-80
2022/06/01 03:26:21;;;;;;;2.80;2.60;;;;;;;11.51;79.04;101431.41;5078025;28;20040;-80
2022/06/01 03:28:46;;;;;;;2.80;2.60;;;;;;;11.46;78.75;101428.06;5075484;28;20044;-80
2022/06/01 03:31:12;;;;;;;2.35;2.15;;;;;;;11.45;78.88;101429.84;5043420;28;20032;-80
2022/06/01 03:33:37;;;;;;;2.95;2.20;;;;;;;11.43;78.56;101426.41;5060216;28;20036;-80
2022/06/01 03:36:04;;;;;;;1.90;1.80;;;;;;;11.41;78.59;101430.03;5059678;28;20363;-80
2022/06/01 03:38:30;;;;;;;2.70;2.33;;;;;;;11.39;78.63;101423.94;5059983;28;20336;-80
2022/06/01 03:40:56;;;;;;;2.30;2.20;;;;;;;11.37;78.42;101421.41;5060160;28;20125;-80
2022/06/01 03:43:21;;;;;;;2.50;2.30;;;;;;;11.34;78.35;101424.13;5059595;28;20048;-80
2022/06/01 03:45:56;;;;;;;2.47;2.28;;;;;;;11.33;78.23;101427.63;5059940;28;20029;-80
2022/06/01 03:48:28;;;;;;;2.03;1.92;;;;;;;11.30;78.55;101431.25;5061086;28;20249;-80
2022/06/01 03:50:55;;;;;;;2.20;2.10;;;;;;;11.28;78.38;101422.56;5059650;28;20028;-80
2022/06/01 03:53:20;;;;;;;2.17;2.00;;;;;;;11.27;78.18;101431.34;5077438;28;20021;-80
2022/06/01 03:55:47;;;;;;;2.03;1.92;;;;;;;11.24;78.24;101430.56;5077726;28;20107;-80
2022/06/01 03:58:18;;;;;;;2.58;1.95;;;;;;;11.23;77.90;101440.22;5059127;28;20115;-80
2022/06/01 04:00:44;;;;;;;2.00;1.90;;;;;;;11.21;77.88;101441.19;5077542;28;20396;-80
2022/06/01 04:03:09;;;;;;;1.83;1.73;;;;;;;11.18;78.03;101439.50;5077352;28;20095;-80
2022/06/01 04:05:35;;;;;;;3.42;2.20;;;;;;;11.16;78.03;101441.34;5059336;28;20044;-80
2022/06/01 04:08:02;;;;;;;4.25;2.33;;;;;;;11.16;77.98;101446.56;5043439;28;20040;-80
2022/06/01 04:10:27;;;;;;;2.17;2.08;;;;;;;11.13;77.99;101437.06;5059128;28;20036;-80
2022/06/01 04:12:53;;;;;;;2.85;2.65;;;;;;;11.12;78.03;101439.72;5058264;28;20307;-80
2022/06/01 04:15:18;;;;;;;2.63;2.42;;;;;;;11.11;78.09;101438.88;5061234;28;20050;-80
2022/06/01 04:17:44;;;;;;;2.45;2.25;;;;;;;11.10;78.40;101441.56;5090929;28;20062;-80
2022/06/01 04:20:10;;;;;;;2.70;2.50;;;;;;;11.09;78.01;101445.06;5096498;28;20066;-80
2022/06/01 04:22:40;;;;;;;2.67;2.25;;;;;;;11.09;78.07;101445.91;5096527;28;20259;-80
2022/06/01 04:25:06;;;;;;;2.60;2.40;;;;;;;11.07;78.01;101439.03;5084744;28;20057;-80
2022/06/01 04:27:31;;;;;;;2.45;2.25;;;;;;;11.06;78.19;101437.28;5077560;28;20048;-80
2022/06/01 04:29:56;;;;;;;2.30;2.20;;;;;;;11.04;78.24;101428.63;5076945;28;20143;-80
2022/06/01 04:32:26;;;;;;;2.78;2.58;;;;;;;11.05;78.27;101427.72;5059038;28;20359;-80
2022/06/01 04:34:51;;;;;;;2.80;2.60;;;;;;;11.04;78.40;101433.88;5077004;28;20032;-80
2022/06/01 04:37:17;;;;;;;2.20;2.10;;;;;;;11.03;78.40;101430.41;5076609;28;20107;-80
2022/06/01 04:39:42;;;;;;;2.70;2.60;;;;;;;11.03;78.66;101434.78;5058490;28;20037;-80
2022/06/01 04:42:08;;;;;;;2.78;2.58;;;;;;;11.02;78.86;101428.66;5058321;28;20021;-80
2022/06/01 04:44:34;;;;;;;3.10;2.90;;;;;;;11.02;79.02;101441.78;5076438;28;20064;-80
2022/06/01 04:46:59;;;;;;;3.00;2.80;;;;;;;11.03;78.87;101442.66;5058741;28;20040;-80
2022/06/01 04:49:24;;;;;;;3.45;3.15;;;;;;;11.02;78.97;101441.78;5075952;28;20279;-80
2022/06/01 04:51:50;;;;;;;2.85;2.65;;;;;;;11.03;79.13;101445.28;5078711;28;20036;-80
2022/06/01 04:54:15;;;;;;;2.78;2.50;;;;;;;11.04;79.01;101444.34;5083809;28;20047;-80
2022/06/01 04:56:41;;;;;;;2.80;2.60;;;;;;;11.04;79.05;101444.34;5059767;28;20388;-80
2022/06/01 04:59:06;;;;;;;3.67;3.38;;;;;;;11.03;79.16;101440.88;5083011;28;20039;-80
2022/06/01 05:01:31;;;;;;;3.05;2.85;;;;;;;11.04;78.99;101441.72;5071479;28;20323;-80
2022/06/01 05:03:57;;;;;;;3.50;3.20;;;;;;;11.03;79.32;101443.50;5067198;28;20089;-80
2022/06/01 05:06:22;;;;;;;3.55;3.25;;;;;;;11.03;79.41;101442.66;5063635;28;20102;-80
2022/06/01 05:08:48;;;;;;;3.88;3.58;;;;;;;11.05;79.38;101438.22;5066793;28;20040;-80
2022/06/01 05:11:13;;;;;;;3.50;3.30;;;;;;;11.04;79.51;101441.72;5065331;28;20055;-80
2022/06/01 05:13:39;;;;;;;3.85;3.40;;;;;;;11.04;79.23;101450.47;5084220;28;20059;-80
2022/06/01 05:16:06;;;;;;;3.65;3.35;;;;;;;11.06;79.52;101450.41;5080433;28;20048;-80
2022/06/01 05:18:32;;;;;;;3.97;3.55;;;;;;;11.07;79.49;101452.13;5047758;28;20036;-80
2022/06/01 05:20:57;;;;;;;3.05;2.85;;;;;;;11.06;79.55;101456.53;5082993;28;20359;-80
2022/06/01 05:23:24;;;;;;;3.42;3.20;;;;;;;11.09;79.40;101458.16;5065745;28;20283;-80
2022/06/01 05:25:51;;;;;;;3.53;3.33;;;;;;;11.08;79.38;101453.84;5086389;28;20039;-80
2022/06/01 05:28:20;;;;;;;3.08;2.88;;;;;;;11.09;79.34;101455.53;5074692;28;20094;-80
2022/06/01 05:30:46;;;;;;;3.45;3.25;;;;;;;11.09;79.32;101453.78;5075102;28;20039;-80
2022/06/01 05:33:12;;;;;;;2.90;2.70;;;;;;;11.12;79.23;101458.06;5074709;28;20333;-80
2022/06/01 05:35:37;;;;;;;3.25;3.05;;;;;;;11.11;78.89;101458.97;5069806;28;20040;-80
2022/06/01 05:38:03;;;;;;;3.78;3.47;;;;;;;11.12;78.64;101463.31;5074260;28;20059;-80
2022/06/01 05:40:30;;;;;;;3.85;3.55;;;;;;;11.13;78.80;101462.41;5039167;28;20472;-80
2022/06/01 05:42:59;;;;;;;3.63;3.40;;;;;;;11.12;78.31;101458.94;5059235;28;20044;-80
2022/06/01 05:45:25;;;;;;;3.22;3.00;;;;;;;11.12;77.91;101458.94;5068125;28;20154;-80
2022/06/01 05:47:51;;;;;;;3.42;3.13;;;;;;;11.14;77.77;101466.75;5079529;28;20027;-80
2022/06/01 05:50:16;;;;;;;3.33;3.13;;;;;;;11.16;77.62;101469.31;5068546;28;20266;-80
2022/06/01 05:52:42;;;;;;;3.65;3.15;;;;;;;11.16;77.58;101462.31;5067871;28;20362;-80
2022/06/01 05:55:12;;;;;;;4.30;3.92;;;;;;;11.18;78.36;101465.72;5083831;28;20266;-80
2022/06/01 05:57:38;;;;;;;6.15;3.95;;;;;;;11.19;78.73;101466.56;5084110;28;20080;-80
2022/06/01 06:00:08;;;;;;;4.15;3.85;;;;;;;11.20;78.75;101471.78;5048725;28;20063;-80
2022/06/01 06:02:33;;;;;;;4.38;4.07;;;;;;;11.22;79.47;101469.09;5084130;28;20029;-80
2022/06/01 06:04:59;;;;;;;4.50;3.58;;;;;;;11.23;79.66;101476.94;5081390;28;20059;-80
2022/06/01 06:07:24;;;;;;;3.83;3.53;;;;;;;11.24;79.54;101477.78;5056872;28;20082;-80
2022/06/01 06:09:49;;;;;;;3.90;3.50;;;;;;;11.24;79.88;101476.03;5057876;28;20103;-80
2022/06/01 06:12:15;;;;;;;3.38;3.17;;;;;;;11.25;80.57;101485.59;5075542;28;20232;-80
2022/06/01 06:14:40;;;;;;;3.45;3.08;;;;;;;11.25;79.75;101484.75;5041590;28;20052;-80
2022/06/01 06:17:06;;;;;;;3.03;2.72;;;;;;;11.25;79.63;101477.72;5023898;28;20044;-80
2022/06/01 06:19:31;;;;;;;3.13;2.92;;;;;;;11.24;78.93;101481.28;5075588;28;20044;-80
2022/06/01 06:21:57;;;;;;;3.45;2.92;;;;;;;11.26;79.08;101489.94;5075594;28;20032;-80
2022/06/01 06:24:22;;;;;;;3.50;3.03;;;;;;;11.27;78.94;101491.63;5075658;28;20103;-80
2022/06/01 06:26:48;;;;;;;3.92;3.33;;;;;;;11.29;78.65;101488.97;5057693;28;20050;-80
2022/06/01 06:29:16;;;;;;;2.85;2.60;;;;;;;11.30;79.29;101491.53;5077858;28;20074;-80
2022/06/01 06:31:42;;;;;;;3.20;2.63;;;;;;;11.32;79.90;101499.38;5078478;28;20145;-80
2022/06/01 06:34:07;;;;;;;2.80;2.60;;;;;;;11.32;80.18;101505.47;5057654;28;20087;-80
2022/06/01 06:36:33;;;;;;;2.28;2.08;;;;;;;11.33;81.49;101509.81;5078501;28;20340;-80
2022/06/01 06:38:58;;;;;;;2.15;1.80;;;;;;;11.36;80.54;101505.38;5082318;28;20221;-80
2022/06/01 06:41:24;;;;;;;1.75;1.55;;;;;;;11.36;80.37;101510.63;5043962;28;20374;-80
2022/06/01 06:43:51;;;;;;;1.98;1.60;;;;;;;11.36;79.84;101518.47;5069568;28;20107;-80
2022/06/01 06:46:19;;;;;;;1.65;1.55;;;;;;;11.36;78.90;101510.63;5060508;28;20413;-80
2022/06/01 06:48:50;;;;;;;2.38;2.00;;;;;;;11.37;79.40;101513.19;5078521;28;20041;-80
2022/06/01 06:51:17;;;;;;;1.73;1.63;;;;;;;11.39;80.29;101507.88;5080301;28;20067;-80
2022/06/01 06:53:44;;;;;;;1.58;1.48;;;;;;;11.40;79.94;101514.84;5078622;28;20106;-80
2022/06/01 06:56:11;;;;;;;2.05;1.85;;;;;;;11.41;79.56;101512.16;5078481;28;20040;-80
2022/06/01 06:58:37;;;;;;;1.60;1.50;;;;;;;11.43;80.12;101520.00;5076989;28;20044;-80
2022/06/01 07:01:03;;;;;;;2.05;1.95;;;;;;;11.43;80.33;101526.09;5083942;28;20078;-79
2022/06/01 07:03:28;;;;;;;1.70;1.60;;;;;;;11.45;79.49;101518.16;5078711;28;20051;-79
2022/06/01 07:06:09;;;;;;;1.90;1.77;;;;;;;11.48;79.92;101526.78;5081026;28;20027;-80
2022/06/01 07:08:35;;;;;;;1.80;1.70;;;;;;;11.50;80.22;101530.22;5072837;28;20250;-79
2022/06/01 07:11:01;;;;;;;1.70;1.60;;;;;;;11.52;80.78;101532.78;5043089;28;20299;-80
2022/06/01 07:13:29;;;;;;;2.92;1.83;;;;;;;11.56;81.22;101530.94;5078098;28;20044;-79
2022/06/01 07:16:12;;;;;;;1.80;1.70;;;;;;;11.58;81.89;101537.81;5078559;28;20371;-79
2022/06/01 07:18:39;;;;;;;1.52;1.42;;;;;;;11.60;80.32;101540.41;5087334;28;20282;-79
2022/06/01 07:21:05;;;;;;;1.38;1.27;;;;;;;11.62;80.41;101535.97;5065357;28;20375;-79
2022/06/01 07:23:31;;;;;;;1.70;1.60;;;;;;;11.63;79.50;101537.69;5090404;28;20047;-79
2022/06/01 07:25:57;;;;;;;2.08;1.80;;;;;;;11.64;79.68;101547.25;5061400;28;20479;-79
2022/06/01 07:28:23;;;;;;;1.88;1.77;;;;;;;11.66;80.19;101543.69;5077894;28;20082;-79
2022/06/01 07:30:50;;;;;;;3.13;1.75;;;;;;;11.70;81.13;101547.91;5080598;28;20275;-79
2022/06/01 07:33:18;;;;;;;3.30;1.80;;;;;;;11.71;80.86;101544.41;5082455;28;20267;-79
2022/06/01 07:35:44;;;;;;;1.90;1.80;;;;;;;11.72;79.80;101546.09;5052587;28;20029;-79
2022/06/01 07:43:41;;;;;;;1.88;1.65;;;;;;;11.80;79.65;101540.56;5085143;28;20076;-79
2022/06/01 07:46:08;;;;;;;1.40;1.30;;;;;;;11.83;79.68;101553.59;5082403;28;20036;-79
2022/06/01 07:48:33;;;;;;;1.45;1.40;;;;;;;11.84;79.00;101550.06;5066445;28;20040;-79
2022/06/01 07:50:59;;;;;;;1.83;1.73;;;;;;;11.86;78.45;101543.00;5064263;28;20135;-79
2022/06/01 07:53:25;;;;;;;3.42;1.52;;;;;;;11.88;79.21;101549.06;5059035;28;20047;-79
2022/06/01 07:55:50;;;;;;;1.38;1.13;;;;;;;11.93;79.30;101555.94;5057530;28;20112;-79
2022/06/01 07:58:15;;;;;;;1.40;1.30;;;;;;;11.95;78.29;101554.09;5062460;28;20066;-79
2022/06/01 08:00:41;;;;;;;3.85;1.35;;;;;;;11.94;78.29;101553.25;5087119;28;20040;-79
2022/06/01 08:03:11;;;;;;;1.75;1.55;;;;;;;11.95;78.06;101557.59;5064432;28;20272;-79
2022/06/01 08:05:37;;;;;;;2.28;1.65;;;;;;;11.96;78.26;101550.59;5087295;28;20118;-79
2022/06/01 08:08:03;;;;;;;2.03;1.52;;;;;;;11.99;78.80;101558.31;5058228;28;20051;-80
2022/06/01 08:10:28;;;;;;;2.10;1.38;;;;;;;12.02;78.77;101551.19;5067381;28;20069;-79
2022/06/01 08:13:09;;;;;;;2.22;1.30;;;;;;;12.05;78.61;101551.09;5088466;28;20036;-79
2022/06/01 08:15:46;;;;;;;1.58;1.02;;;;;;;12.07;77.96;101557.16;5047779;28;20032;-79
2022/06/01 08:18:15;;;;;;;1.48;1.38;;;;;;;12.08;77.59;101553.63;5080292;28;20032;-79
2022/06/01 08:20:42;;;;;;;;;;;;;;;12.08;77.96;101556.25;5083573;28;20035;-79
2022/06/01 08:23:08;;;;;;;2.03;1.33;;;;;;;12.12;77.99;101557.00;5080475;28;19957;-79
2022/06/01 08:25:35;;;;;;;1.20;1.20;;;;;;;12.13;78.06;101553.44;5085705;28;20352;-79
2022/06/01 08:28:01;;;;;;;3.03;1.30;;;;;;;12.15;77.51;101567.41;5064729;28;20347;-79
2022/06/01 08:30:28;;;;;;;2.40;1.58;;;;;;;12.17;77.06;101557.69;5088301;28;20044;-79
2022/06/01 08:32:54;;;;;;;1.67;1.20;;;;;;;12.19;76.86;101552.41;5076079;28;20036;-79
2022/06/01 08:35:25;;;;;;;2.40;2.00;;;;;;;12.21;77.04;101559.28;5047196;28;20370;-79
2022/06/01 08:37:50;;;;;;;2.20;1.70;;;;;;;12.20;76.62;101562.81;5067158;28;20032;-79
2022/06/01 08:40:20;;;;;;;1.70;1.60;;;;;;;12.23;77.34;101573.22;5075330;28;20046;-79
2022/06/01 08:42:52;;;;;;;2.92;1.55;;;;;;;12.25;76.98;101560.03;5077198;28;20036;-79
2022/06/01 08:45:21;;;;;;;1.80;1.70;;;;;;;12.27;76.74;101564.31;5069566;28;20240;-79
2022/06/01 08:47:46;;;;;;;;;;;;;;;12.31;76.96;101570.31;5084506;28;20082;-79
2022/06/01 08:50:34;;;;;;;2.33;1.80;;;;;;;12.33;75.48;101565.84;5075034;28;20226;-79
2022/06/01 08:53:02;;;;;;;2.10;1.77;;;;;;;12.36;75.83;101573.63;5076176;28;20032;-79
2022/06/01 08:55:44;;;;;;;1.90;1.80;;;;;;;12.36;76.36;101578.88;5081263;28;20043;-79
2022/06/01 08:58:30;;;;;;;2.00;1.60;;;;;;;12.35;75.93;101577.19;5075856;28;20038;-79
2022/06/01 09:01:06;;;;;;;2.88;1.80;;;;;;;12.36;75.67;101584.16;5075665;28;20036;-79
2022/06/01 09:03:42;;;;;;;3.53;2.00;;;;;;;12.38;75.45;101579.69;5081086;28;20040;-79
2022/06/01 09:06:17;;;;;;;2.10;1.90;;;;;;;12.43;75.97;101583.00;5066671;28;20036;-79
2022/06/01 09:08:54;;;;;;;1.98;1.80;;;;;;;12.47;75.73;101581.13;5091675;28;20391;-78
2022/06/01 09:11:46;;;;;;;1.83;1.35;;;;;;;12.50;75.35;101583.66;5077312;28;20332;-79
2022/06/01 09:14:19;;;;;;;1.50;1.30;;;;;;;12.52;75.98;101575.72;5047469;28;20048;-79
2022/06/01 09:16:55;;;;;;;3.83;1.83;;;;;;;12.49;73.51;101593.28;5075396;28;20051;-79
2022/06/01 09:19:26;;;;;;;1.83;1.73;;;;;;;12.48;73.97;101588.97;5075429;28;20412;-79
2022/06/01 09:24:39;;;;;;;1.90;1.60;;;;;;;12.51;73.71;101598.47;5075191;28;20035;-79
2022/06/01 09:27:11;;;;;;;1.60;1.50;;;;;;;12.53;74.83;101603.69;5086543;28;20209;-79
2022/06/01 09:29:48;;;;;;;3.80;1.30;;;;;;;12.52;74.07;101599.38;5079748;28;20371;-79
2022/06/01 09:32:32;;;;;;;2.20;1.30;;;;;;;12.54;73.94;101605.41;5075832;28;20056;-79
2022/06/01 09:35:05;;;;;;;1.50;1.40;;;;;;;12.58;74.41;101612.25;5069779;28;20235;-78
2022/06/01 09:37:36;;;;;;;1.42;1.33;;;;;;;12.60;74.69;101599.91;5087458;28;20032;-79
2022/06/01 09:40:18;;;;;;;1.85;1.75;;;;;;;12.63;74.98;101597.19;5074762;28;20055;-79
2022/06/01 09:42:49;;;;;;;1.90;1.40;;;;;;;12.68;75.39;101601.34;5073917;28;20029;-79
2022/06/01 09:45:29;;;;;;;2.15;1.30;;;;;;;12.71;75.18;101616.13;5070924;28;20634;-78
2022/06/01 09:48:13;;;;;;;3.00;1.60;;;;;;;12.70;73.21;101609.19;5076384;28;20236;-79
2022/06/01 09:50:44;;;;;;;4.60;1.70;;;;;;;12.72;74.51;101604.72;5074513;28;20032;-79
2022/06/01 09:53:17;;;;;;;1.70;1.60;;;;;;;12.75;74.44;101612.50;5073850;28;20040;-79
2022/06/01 09:55:55;;;;;;;1.85;1.52;;;;;;;12.74;73.99;101621.28;5082685;28;20055;-79
2022/06/01 10:07:04;;;;;;;1.77;1.50;;;;;;;12.88;73.94;101620.78;5034940;28;20068;-79
2022/06/01 10:09:32;;;;;;;2.60;1.83;;;;;;;12.90;74.38;101618.97;5078803;28;20032;-79
2022/06/01 10:11:58;;;;;;;1.35;1.25;;;;;;;12.89;74.03;101624.25;5080993;28;20082;-79
2022/06/01 10:14:30;;;;;;;1.20;1.10;;;;;;;12.87;73.88;101625.16;5079450;28;20040;-79
2022/06/01 10:17:14;;;;;;;1.45;1.33;;;;;;;12.89;74.06;101626.91;5081523;28;20235;-79
2022/06/01 10:19:50;;;;;;;1.45;1.35;;;;;;;12.87;74.41;101626.94;5085039;28;20032;-79
2022/06/01 10:22:26;;;;;;;2.58;1.58;;;;;;;12.86;74.65;101635.72;5064523;28;20063;-79
2022/06/01 10:25:16;;;;;;;5.30;1.92;;;;;;;12.87;74.62;101629.56;5081863;28;20039;-79
2022/06/01 10:27:58;;;;;;;2.55;1.60;;;;;;;12.87;73.61;101635.69;5079884;28;20078;-79
2022/06/01 10:30:37;;;;;;;2.30;2.13;;;;;;;12.91;74.01;101632.94;5085294;28;20042;-78
2022/06/01 10:33:14;;;;;;;2.63;2.28;;;;;;;12.95;74.42;101630.16;5084839;28;20090;-78
2022/06/01 10:35:56;;;;;;;3.63;1.92;;;;;;;12.97;74.30;101633.59;5079587;28;20051;-79
2022/06/01 10:39:06;;;;;;;1.45;1.35;;;;;;;13.00;74.61;101643.97;5078843;28;20229;-79
2022/06/01 10:41:38;;;;;;;1.73;1.40;;;;;;;13.02;73.83;101642.16;5084124;28;20036;-79
2022/06/01 10:44:21;;;;;;;1.50;1.40;;;;;;;13.06;74.45;101649.00;5084884;28;20043;-79
2022/06/01 10:46:47;;;;;;;2.55;2.00;;;;;;;13.07;73.92;101645.44;5061157;28;20033;-79
2022/06/01 10:49:22;;;;;;;2.55;1.65;;;;;;;13.08;73.88;101656.84;5076258;28;20362;-79
2022/06/01 10:52:20;;;;;;;3.28;2.30;;;;;;;13.08;74.15;101648.94;5079901;28;20056;-79
2022/06/01 10:55:20;;;;;;;1.40;1.30;;;;;;;13.06;73.64;101656.91;5084062;28;20025;-79
2022/06/01 10:57:48;;;;;;;4.43;1.60;;;;;;;13.05;72.92;101655.16;5079094;28;20145;-79
2022/06/01 11:00:25;;;;;;;2.75;2.08;;;;;;;13.10;74.00;101659.38;5077654;28;20062;-78
2022/06/01 11:03:06;;;;;;;2.35;1.90;;;;;;;13.13;72.82;101654.03;5077813;28;20041;-79
2022/06/01 11:05:47;;;;;;;4.43;1.77;;;;;;;13.19;72.99;101653.81;5078394;28;20359;-78
2022/06/01 11:08:33;;;;;;;2.33;2.13;;;;;;;13.21;71.91;101651.97;5080814;28;20024;-78
2022/06/01 11:11:20;;;;;;;1.27;1.20;;;;;;;13.25;72.58;101659.66;5073397;28;20096;-78
2022/06/01 11:13:57;;;;;;;5.38;1.85;;;;;;;13.28;71.80;101663.97;5086223;28;20044;-79
2022/06/01 11:16:59;;;;;;;1.40;1.30;;;;;;;13.33;72.78;101669.91;5081232;28;20123;-79
2022/06/01 11:19:25;;;;;;;1.65;1.30;;;;;;;13.35;71.97;101672.47;5024322;28;20048;-79
2022/06/01 11:22:04;;;;;;;1.73;1.40;;;;;;;13.36;70.29;101669.81;5076661;28;20209;-79
2022/06/01 11:25:08;;;;;;;1.40;1.30;;;;;;;13.38;71.41;101667.97;5076992;28;20283;-78
2022/06/01 11:28:07;;;;;;;1.75;1.40;;;;;;;13.37;71.57;101679.41;5052389;28;20052;-79
2022/06/01 11:30:56;;;;;;;1.83;1.60;;;;;;;13.39;71.49;101674.94;5076589;28;20021;-79
2022/06/01 11:33:40;;;;;;;3.15;1.60;;;;;;;13.35;70.36;101673.38;5073378;28;20164;-79
2022/06/01 11:36:06;;;;;;;2.60;2.40;;;;;;;13.37;71.27;101681.16;5079036;28;20035;-79
2022/06/01 11:38:39;;;;;;;3.75;3.00;;;;;;;13.36;71.06;101682.09;5075978;28;20044;-79
2022/06/01 11:41:17;;;;;;;3.40;3.10;;;;;;;13.35;70.64;101688.28;5075416;28;20039;-78
2022/06/01 11:43:45;;;;;;;;;;;;;;;13.33;71.47;101683.06;5078594;28;20086;-79
2022/06/01 11:46:15;;;;;;;5.88;3.08;;;;;;;13.33;72.18;101700.63;5077795;28;19916;-79
2022/06/01 11:48:46;;;;;;;3.75;3.35;;;;;;;13.31;72.46;101692.78;5084566;28;20093;-79
2022/06/01 11:51:21;;;;;;;5.95;3.35;;;;;;;13.31;73.03;101691.94;5060949;28;20320;-79
2022/06/01 11:54:05;;;;;;;3.85;3.55;;;;;;;13.31;73.55;101690.16;5071671;28;20247;-78
2022/06/01 11:56:34;;;;;;;6.63;3.60;;;;;;;13.32;72.60;101696.31;5077598;28;20344;-79
2022/06/01 11:59:03;;;;;;;5.18;3.20;;;;;;;13.31;72.41;101684.91;5080634;28;20359;-78
2022/06/01 12:02:06;;;;;;;4.55;3.33;;;;;;;13.32;72.16;101693.66;5081818;28;20044;-79
2022/06/01 12:05:01;;;;;;;3.75;2.95;;;;;;;13.30;71.16;101685.81;5028080;28;20051;-78
2022/06/01 12:07:37;;;;;;;6.38;2.78;;;;;;;13.34;72.90;101692.69;5076382;28;20052;-79